Rosenthal, Texas
Current Conditions -  °F | °C
As of 10:35 AM on Friday 19 Dec 2014 (Local Time) from KPWG Reporting Station
Overcast Overcast  
Wind Chill: 44°   Ceiling: 400
Heat Index: 48°   Visibility: 4mi
Dew Point: 43°   Wind: 10mph
Humidity: 82%   Direction: 10°N
Pressure: 30.19"   Gusts: NA
Location:  31.3976°N, 97.22°W
Report Text: KPWG 191635Z AUTO 01009KT 4SM OVC004 09/06 A3019 RMK AO1
Loading
Personal Weather Stations






























Interactive Weather Map New forecast layout! Learn more

10-Day Weather Forecast

Advertisements
Track Severe Weather on mobile